LLM955 USDD-USTR
Flight info
| Callsign | LLM955 |
|---|---|
| Flight time | 1h 41m |
| Altitude | 36000 |
| Route | DIPAR1N DIPAR N167 DELEN DELEN1N |
| Aircraft | A320/M-SDE3FGHIRWY/LB1 |
Departure
| Time | 2026-05-08 16:23 |
|---|---|
| Airport | Salekhard Airport (USDD) |
Arrival
| Time | 2026-05-08 18:04 |
|---|---|
| Airport | Roshchino International Airport (USTR) |
| Time | Latitude | Longitude | Altitude | Speed | Heading |
|---|---|---|---|---|---|
| 2026-05-08 16:00 | 66.59127 | 66.59096 | 248 ft | 0 kts | 230° |
| 2026-05-08 16:15 | 66.59123 | 66.59084 | 247 ft | 3 kts | 230° |
| 2026-05-08 16:15 | 66.59090 | 66.59037 | 246 ft | 7 kts | 171° |
| 2026-05-08 16:15 | 66.59051 | 66.59156 | 242 ft | 8 kts | 102° |
| 2026-05-08 16:16 | 66.59039 | 66.59296 | 240 ft | 7 kts | 137° |
| 2026-05-08 16:16 | 66.58995 | 66.59394 | 236 ft | 12 kts | 139° |
| 2026-05-08 16:16 | 66.58927 | 66.59559 | 228 ft | 13 kts | 107° |
| 2026-05-08 16:16 | 66.58965 | 66.59789 | 226 ft | 13 kts | 60° |
| 2026-05-08 16:17 | 66.59012 | 66.59994 | 227 ft | 12 kts | 62° |
| 2026-05-08 16:17 | 66.59042 | 66.60137 | 225 ft | 15 kts | 62° |
| 2026-05-08 16:17 | 66.59087 | 66.60433 | 218 ft | 11 kts | 135° |
| 2026-05-08 16:17 | 66.59074 | 66.60455 | 218 ft | 0 kts | 153° |
| 2026-05-08 16:18 | 66.59061 | 66.60469 | 217 ft | 6 kts | 154° |
| 2026-05-08 16:18 | 66.59008 | 66.60539 | 216 ft | 10 kts | 151° |
| 2026-05-08 16:19 | 66.58968 | 66.60673 | 213 ft | 12 kts | 68° |
| 2026-05-08 16:19 | 66.59015 | 66.60896 | 209 ft | 16 kts | 62° |
| 2026-05-08 16:19 | 66.59061 | 66.61107 | 204 ft | 15 kts | 61° |
| 2026-05-08 16:19 | 66.59119 | 66.61372 | 199 ft | 19 kts | 61° |
| 2026-05-08 16:20 | 66.59189 | 66.61699 | 191 ft | 23 kts | 61° |
| 2026-05-08 16:20 | 66.59270 | 66.62077 | 184 ft | 26 kts | 62° |
| 2026-05-08 16:20 | 66.59360 | 66.62487 | 179 ft | 27 kts | 61° |
| 2026-05-08 16:20 | 66.59448 | 66.62891 | 181 ft | 25 kts | 62° |
| 2026-05-08 16:21 | 66.59529 | 66.63268 | 186 ft | 23 kts | 61° |
| 2026-05-08 16:21 | 66.59602 | 66.63587 | 190 ft | 16 kts | 40° |
| 2026-05-08 16:21 | 66.59656 | 66.63663 | 192 ft | 6 kts | 40° |
| 2026-05-08 16:21 | 66.59654 | 66.63753 | 192 ft | 7 kts | 157° |
| 2026-05-08 16:22 | 66.59620 | 66.63693 | 192 ft | 0 kts | 243° |
| 2026-05-08 16:22 | 66.59616 | 66.63673 | 191 ft | 6 kts | 243° |
| 2026-05-08 16:22 | 66.59489 | 66.63088 | 184 ft | 72 kts | 243° |
| 2026-05-08 16:23 | 66.59150 | 66.61511 | 196 ft | 129 kts | 243° |
| 2026-05-08 16:23 | 66.58670 | 66.59276 | 424 ft | 154 kts | 244° |
| 2026-05-08 16:23 | 66.58141 | 66.56883 | 889 ft | 162 kts | 238° |
| 2026-05-08 16:23 | 66.57224 | 66.55202 | 1420 ft | 175 kts | 200° |
| 2026-05-08 16:24 | 66.56027 | 66.54671 | 2047 ft | 178 kts | 191° |
| 2026-05-08 16:24 | 66.54813 | 66.54305 | 2674 ft | 179 kts | 192° |
| 2026-05-08 16:24 | 66.53578 | 66.53857 | 3279 ft | 182 kts | 193° |
| 2026-05-08 16:24 | 66.52274 | 66.53276 | 3708 ft | 197 kts | 195° |
| 2026-05-08 16:25 | 66.50886 | 66.52576 | 4125 ft | 213 kts | 196° |
| 2026-05-08 16:25 | 66.49371 | 66.51759 | 4461 ft | 236 kts | 197° |
| 2026-05-08 16:25 | 66.47703 | 66.50839 | 4952 ft | 254 kts | 197° |
| 2026-05-08 16:25 | 66.45937 | 66.49855 | 5490 ft | 270 kts | 197° |
| 2026-05-08 16:26 | 66.44087 | 66.48827 | 6279 ft | 275 kts | 197° |
| 2026-05-08 16:26 | 66.42235 | 66.47801 | 7134 ft | 278 kts | 197° |
| 2026-05-08 16:26 | 66.40342 | 66.46749 | 7989 ft | 281 kts | 197° |
| 2026-05-08 16:26 | 66.38451 | 66.45695 | 8794 ft | 284 kts | 198° |
| 2026-05-08 16:27 | 66.36541 | 66.44629 | 9567 ft | 287 kts | 198° |
| 2026-05-08 16:27 | 66.34572 | 66.43530 | 10302 ft | 290 kts | 198° |
| 2026-05-08 16:27 | 66.32589 | 66.42426 | 10969 ft | 295 kts | 198° |
| 2026-05-08 16:27 | 66.30588 | 66.41315 | 11642 ft | 298 kts | 198° |
| 2026-05-08 16:28 | 66.28567 | 66.40194 | 12301 ft | 301 kts | 198° |
| 2026-05-08 16:28 | 66.26548 | 66.39078 | 12940 ft | 304 kts | 198° |
| 2026-05-08 16:28 | 66.24483 | 66.37936 | 13564 ft | 306 kts | 198° |
| 2026-05-08 16:28 | 66.22398 | 66.36787 | 14170 ft | 309 kts | 198° |
| 2026-05-08 16:29 | 66.20328 | 66.35647 | 14761 ft | 312 kts | 199° |
| 2026-05-08 16:29 | 66.18190 | 66.34471 | 15345 ft | 315 kts | 198° |
| 2026-05-08 16:29 | 66.16042 | 66.33292 | 15919 ft | 318 kts | 198° |
| 2026-05-08 16:29 | 66.13899 | 66.32035 | 16475 ft | 320 kts | 200° |
| 2026-05-08 16:30 | 66.11742 | 66.30671 | 17030 ft | 322 kts | 200° |
| 2026-05-08 16:30 | 66.09572 | 66.29285 | 17572 ft | 324 kts | 200° |
| 2026-05-08 16:30 | 66.07400 | 66.27907 | 18111 ft | 326 kts | 200° |
| 2026-05-08 16:30 | 66.05198 | 66.26517 | 18661 ft | 328 kts | 200° |
| 2026-05-08 16:31 | 66.03002 | 66.25140 | 19183 ft | 330 kts | 200° |
| 2026-05-08 16:31 | 66.00764 | 66.23740 | 19705 ft | 332 kts | 201° |
| 2026-05-08 16:31 | 65.98527 | 66.22348 | 20192 ft | 334 kts | 201° |
| 2026-05-08 16:31 | 65.96247 | 66.20933 | 20702 ft | 336 kts | 201° |
| 2026-05-08 16:32 | 65.93996 | 66.19535 | 21175 ft | 338 kts | 201° |
| 2026-05-08 16:32 | 65.91728 | 66.18132 | 21651 ft | 339 kts | 202° |
| 2026-05-08 16:32 | 65.89439 | 66.16719 | 22116 ft | 340 kts | 202° |
| 2026-05-08 16:32 | 65.87151 | 66.15309 | 22553 ft | 341 kts | 203° |
| 2026-05-08 16:33 | 65.84852 | 66.13893 | 23004 ft | 343 kts | 203° |
| 2026-05-08 16:33 | 65.82549 | 66.12476 | 23394 ft | 344 kts | 203° |
| 2026-05-08 16:33 | 65.80240 | 66.11059 | 23796 ft | 346 kts | 204° |
| 2026-05-08 16:33 | 65.77911 | 66.09632 | 24225 ft | 347 kts | 204° |
| 2026-05-08 16:34 | 65.75573 | 66.08200 | 24602 ft | 349 kts | 204° |
| 2026-05-08 16:34 | 65.73252 | 66.06784 | 24982 ft | 349 kts | 204° |
| 2026-05-08 16:34 | 65.70901 | 66.05350 | 25339 ft | 351 kts | 205° |
| 2026-05-08 16:34 | 65.68549 | 66.03912 | 25729 ft | 351 kts | 205° |
| 2026-05-08 16:35 | 65.66180 | 66.02467 | 26080 ft | 352 kts | 205° |
| 2026-05-08 16:35 | 65.63821 | 66.01032 | 26444 ft | 353 kts | 205° |
| 2026-05-08 16:35 | 65.61426 | 65.99580 | 26793 ft | 355 kts | 205° |
| 2026-05-08 16:35 | 65.59050 | 65.98137 | 27122 ft | 356 kts | 205° |
| 2026-05-08 16:36 | 65.56656 | 65.96690 | 27454 ft | 358 kts | 205° |
| 2026-05-08 16:36 | 65.54243 | 65.95235 | 27777 ft | 359 kts | 205° |
| 2026-05-08 16:36 | 65.51812 | 65.93771 | 28051 ft | 361 kts | 205° |
| 2026-05-08 16:36 | 65.49387 | 65.92313 | 28319 ft | 363 kts | 205° |
| 2026-05-08 16:37 | 65.46959 | 65.90857 | 28586 ft | 365 kts | 205° |
| 2026-05-08 16:37 | 65.44497 | 65.89384 | 28880 ft | 365 kts | 205° |
| 2026-05-08 16:37 | 65.42050 | 65.87927 | 29163 ft | 366 kts | 205° |
| 2026-05-08 16:37 | 65.39596 | 65.86462 | 29402 ft | 368 kts | 205° |
| 2026-05-08 16:38 | 65.37114 | 65.84985 | 29656 ft | 370 kts | 205° |
| 2026-05-08 16:38 | 65.34631 | 65.83515 | 29945 ft | 370 kts | 205° |
| 2026-05-08 16:38 | 65.32150 | 65.82050 | 30209 ft | 371 kts | 206° |
| 2026-05-08 16:38 | 65.29626 | 65.80556 | 30463 ft | 372 kts | 205° |
| 2026-05-08 16:39 | 65.27134 | 65.79081 | 30695 ft | 373 kts | 206° |
| 2026-05-08 16:39 | 65.24641 | 65.77594 | 30899 ft | 375 kts | 205° |
| 2026-05-08 16:39 | 65.22107 | 65.76080 | 31092 ft | 376 kts | 205° |
| 2026-05-08 16:39 | 65.19561 | 65.74566 | 31250 ft | 378 kts | 205° |
| 2026-05-08 16:40 | 65.17039 | 65.73068 | 31423 ft | 380 kts | 205° |
| 2026-05-08 16:40 | 65.14455 | 65.71542 | 31595 ft | 383 kts | 205° |
| 2026-05-08 16:40 | 65.11887 | 65.70027 | 31772 ft | 384 kts | 205° |
| 2026-05-08 16:40 | 65.09293 | 65.68499 | 31942 ft | 385 kts | 205° |
| 2026-05-08 16:41 | 65.06699 | 65.66978 | 32095 ft | 387 kts | 204° |
| 2026-05-08 16:41 | 65.04092 | 65.65450 | 32242 ft | 389 kts | 204° |
| 2026-05-08 16:41 | 65.01475 | 65.63922 | 32410 ft | 391 kts | 204° |
| 2026-05-08 16:42 | 64.96240 | 65.60874 | 32752 ft | 394 kts | 204° |
| 2026-05-08 16:42 | 64.93591 | 65.59336 | 32924 ft | 395 kts | 204° |
| 2026-05-08 16:42 | 64.90910 | 65.57782 | 33090 ft | 397 kts | 203° |
| 2026-05-08 16:42 | 64.88251 | 65.56246 | 33244 ft | 398 kts | 203° |
| 2026-05-08 16:43 | 64.85554 | 65.54692 | 33401 ft | 400 kts | 203° |
| 2026-05-08 16:43 | 64.82866 | 65.53149 | 33556 ft | 402 kts | 203° |
| 2026-05-08 16:43 | 64.80150 | 65.51596 | 33737 ft | 403 kts | 203° |
| 2026-05-08 16:43 | 64.77438 | 65.50048 | 33918 ft | 404 kts | 203° |
| 2026-05-08 16:44 | 64.74714 | 65.48496 | 34069 ft | 405 kts | 203° |
| 2026-05-08 16:44 | 64.72000 | 65.46950 | 34207 ft | 407 kts | 203° |
| 2026-05-08 16:44 | 64.69266 | 65.45397 | 34392 ft | 409 kts | 203° |
| 2026-05-08 16:44 | 64.66480 | 65.43820 | 34510 ft | 410 kts | 203° |
| 2026-05-08 16:45 | 64.63746 | 65.42275 | 34650 ft | 412 kts | 203° |
| 2026-05-08 16:45 | 64.60959 | 65.40706 | 34805 ft | 413 kts | 202° |
| 2026-05-08 16:45 | 64.58160 | 65.39130 | 34967 ft | 414 kts | 202° |
| 2026-05-08 16:45 | 64.55378 | 65.37566 | 35101 ft | 416 kts | 202° |
| 2026-05-08 16:46 | 64.52586 | 65.36002 | 35247 ft | 417 kts | 202° |
| 2026-05-08 16:46 | 64.49778 | 65.34433 | 35375 ft | 418 kts | 201° |
| 2026-05-08 16:46 | 64.46940 | 65.32848 | 35483 ft | 420 kts | 201° |
| 2026-05-08 16:46 | 64.44117 | 65.31274 | 35609 ft | 422 kts | 201° |
| 2026-05-08 16:47 | 64.41267 | 65.29692 | 35746 ft | 423 kts | 201° |
| 2026-05-08 16:47 | 64.38434 | 65.28123 | 35874 ft | 424 kts | 201° |
| 2026-05-08 16:47 | 64.35565 | 65.26537 | 36025 ft | 425 kts | 201° |
| 2026-05-08 16:48 | 64.29845 | 65.23384 | 36079 ft | 427 kts | 201° |
| 2026-05-08 16:48 | 64.24094 | 65.20235 | 36081 ft | 427 kts | 201° |
| 2026-05-08 16:49 | 64.18351 | 65.17094 | 36091 ft | 426 kts | 201° |
| 2026-05-08 16:49 | 64.12633 | 65.13975 | 36083 ft | 425 kts | 201° |
| 2026-05-08 16:50 | 64.06907 | 65.10863 | 36087 ft | 425 kts | 201° |
| 2026-05-08 16:50 | 64.01165 | 65.07759 | 36099 ft | 424 kts | 201° |
| 2026-05-08 16:51 | 63.95436 | 65.04759 | 36087 ft | 426 kts | 199° |
| 2026-05-08 16:51 | 63.89555 | 65.02861 | 36097 ft | 432 kts | 193° |
| 2026-05-08 16:52 | 63.83571 | 65.02313 | 36086 ft | 435 kts | 190° |
| 2026-05-08 16:52 | 63.77524 | 65.01881 | 36084 ft | 435 kts | 190° |
| 2026-05-08 16:53 | 63.68459 | 65.01242 | 36085 ft | 435 kts | 190° |
| 2026-05-08 16:53 | 63.62480 | 65.00826 | 36071 ft | 435 kts | 191° |
| 2026-05-08 16:54 | 63.56472 | 65.00387 | 36064 ft | 433 kts | 191° |
| 2026-05-08 16:54 | 63.50473 | 64.99949 | 36076 ft | 433 kts | 191° |
| 2026-05-08 16:55 | 63.44487 | 64.99517 | 36054 ft | 433 kts | 191° |
| 2026-05-08 16:55 | 63.38504 | 64.99085 | 36074 ft | 432 kts | 191° |
| 2026-05-08 16:56 | 63.32520 | 64.98659 | 36045 ft | 432 kts | 191° |
| 2026-05-08 16:56 | 63.26533 | 64.98234 | 36060 ft | 433 kts | 191° |
| 2026-05-08 16:57 | 63.20555 | 64.97811 | 36055 ft | 431 kts | 191° |
| 2026-05-08 16:57 | 63.14579 | 64.97394 | 36049 ft | 430 kts | 191° |
| 2026-05-08 16:58 | 63.08653 | 64.96977 | 36049 ft | 430 kts | 191° |
| 2026-05-08 16:58 | 63.02680 | 64.96560 | 36052 ft | 430 kts | 191° |
| 2026-05-08 16:59 | 62.96743 | 64.96146 | 36049 ft | 431 kts | 191° |
| 2026-05-08 16:59 | 62.90746 | 64.95731 | 36062 ft | 431 kts | 191° |
| 2026-05-08 17:00 | 62.84795 | 64.95322 | 36049 ft | 429 kts | 191° |
| 2026-05-08 17:00 | 62.78889 | 64.94917 | 36049 ft | 428 kts | 191° |
| 2026-05-08 17:01 | 62.72953 | 64.94513 | 36047 ft | 428 kts | 191° |
| 2026-05-08 17:01 | 62.67038 | 64.94109 | 36049 ft | 428 kts | 191° |
| 2026-05-08 17:02 | 62.61105 | 64.93706 | 36052 ft | 428 kts | 191° |
| 2026-05-08 17:02 | 62.55151 | 64.93308 | 36047 ft | 429 kts | 191° |
| 2026-05-08 17:03 | 62.49250 | 64.92912 | 36048 ft | 427 kts | 191° |
| 2026-05-08 17:03 | 62.43334 | 64.92503 | 36047 ft | 427 kts | 191° |
| 2026-05-08 17:04 | 62.37416 | 64.92092 | 36041 ft | 428 kts | 191° |
| 2026-05-08 17:04 | 62.31523 | 64.91688 | 36050 ft | 426 kts | 191° |
| 2026-05-08 17:05 | 62.25618 | 64.91287 | 36042 ft | 426 kts | 191° |
| 2026-05-08 17:05 | 62.19743 | 64.90885 | 36044 ft | 426 kts | 191° |
| 2026-05-08 17:06 | 62.13822 | 64.90486 | 36034 ft | 426 kts | 191° |
| 2026-05-08 17:06 | 62.07930 | 64.90091 | 36035 ft | 425 kts | 191° |
| 2026-05-08 17:07 | 62.02059 | 64.89696 | 36051 ft | 425 kts | 191° |
| 2026-05-08 17:07 | 61.96203 | 64.89308 | 36056 ft | 425 kts | 191° |
| 2026-05-08 17:08 | 61.90321 | 64.89007 | 36055 ft | 425 kts | 190° |
| 2026-05-08 17:08 | 61.84404 | 64.88821 | 36045 ft | 424 kts | 190° |
| 2026-05-08 17:09 | 61.78543 | 64.88632 | 36047 ft | 424 kts | 190° |
| 2026-05-08 17:09 | 61.72679 | 64.88440 | 36066 ft | 423 kts | 191° |
| 2026-05-08 17:10 | 61.66792 | 64.88244 | 36037 ft | 425 kts | 191° |
| 2026-05-08 17:10 | 61.60901 | 64.88045 | 36047 ft | 424 kts | 191° |
| 2026-05-08 17:11 | 61.55082 | 64.87853 | 36031 ft | 422 kts | 191° |
| 2026-05-08 17:11 | 61.49213 | 64.87656 | 36025 ft | 423 kts | 191° |
| 2026-05-08 17:12 | 61.43401 | 64.87462 | 36023 ft | 421 kts | 191° |
| 2026-05-08 17:12 | 61.37556 | 64.87273 | 36038 ft | 422 kts | 191° |
| 2026-05-08 17:13 | 61.31701 | 64.87077 | 36009 ft | 420 kts | 191° |
| 2026-05-08 17:13 | 61.25915 | 64.86895 | 36027 ft | 418 kts | 191° |
| 2026-05-08 17:14 | 61.20091 | 64.86701 | 36018 ft | 421 kts | 191° |
| 2026-05-08 17:14 | 61.14242 | 64.86501 | 36008 ft | 420 kts | 191° |
| 2026-05-08 17:15 | 61.08403 | 64.86304 | 36019 ft | 419 kts | 191° |
| 2026-05-08 17:15 | 61.02618 | 64.86111 | 36014 ft | 418 kts | 191° |
| 2026-05-08 17:16 | 60.96796 | 64.85918 | 36009 ft | 418 kts | 191° |
| 2026-05-08 17:16 | 60.90994 | 64.85718 | 35997 ft | 419 kts | 191° |
| 2026-05-08 17:17 | 60.88103 | 64.85622 | 35802 ft | 419 kts | 191° |
| 2026-05-08 17:17 | 60.85179 | 64.85523 | 35864 ft | 421 kts | 191° |
| 2026-05-08 17:17 | 60.79339 | 64.85329 | 35943 ft | 420 kts | 191° |
| 2026-05-08 17:18 | 60.73535 | 64.85139 | 35969 ft | 422 kts | 191° |
| 2026-05-08 17:18 | 60.67661 | 64.84952 | 35979 ft | 423 kts | 191° |
| 2026-05-08 17:19 | 60.61783 | 64.84764 | 35985 ft | 423 kts | 190° |
| 2026-05-08 17:19 | 60.55932 | 64.84575 | 35989 ft | 423 kts | 190° |
| 2026-05-08 17:20 | 60.50077 | 64.84388 | 35984 ft | 423 kts | 190° |
| 2026-05-08 17:20 | 60.44226 | 64.84199 | 35969 ft | 423 kts | 190° |
| 2026-05-08 17:21 | 60.38341 | 64.84013 | 35973 ft | 424 kts | 190° |
| 2026-05-08 17:21 | 60.32465 | 64.83825 | 35963 ft | 424 kts | 190° |
| 2026-05-08 17:22 | 60.26610 | 64.83646 | 35963 ft | 423 kts | 190° |
| 2026-05-08 17:22 | 60.20735 | 64.83460 | 35973 ft | 424 kts | 189° |
| 2026-05-08 17:23 | 60.14854 | 64.83276 | 35962 ft | 424 kts | 189° |
| 2026-05-08 17:23 | 60.08953 | 64.83103 | 35960 ft | 425 kts | 189° |
| 2026-05-08 17:24 | 60.03023 | 64.82948 | 35944 ft | 427 kts | 189° |
| 2026-05-08 17:24 | 59.97185 | 64.82800 | 35935 ft | 426 kts | 189° |
| 2026-05-08 17:25 | 59.91273 | 64.82652 | 35930 ft | 426 kts | 189° |
| 2026-05-08 17:25 | 59.85394 | 64.82502 | 35925 ft | 425 kts | 189° |
| 2026-05-08 17:26 | 59.79514 | 64.82353 | 35923 ft | 425 kts | 189° |
| 2026-05-08 17:26 | 59.73613 | 64.82204 | 35919 ft | 425 kts | 188° |
| 2026-05-08 17:27 | 59.67711 | 64.82054 | 35917 ft | 425 kts | 188° |
| 2026-05-08 17:27 | 59.61813 | 64.81905 | 35923 ft | 425 kts | 188° |
| 2026-05-08 17:28 | 59.55907 | 64.81762 | 35924 ft | 424 kts | 188° |
| 2026-05-08 17:28 | 59.50038 | 64.81615 | 35915 ft | 424 kts | 188° |
| 2026-05-08 17:29 | 59.44172 | 64.81469 | 35911 ft | 424 kts | 188° |
| 2026-05-08 17:29 | 59.38260 | 64.81324 | 35910 ft | 424 kts | 188° |
| 2026-05-08 17:30 | 59.32387 | 64.81181 | 35906 ft | 424 kts | 188° |
| 2026-05-08 17:30 | 59.26517 | 64.81041 | 35906 ft | 424 kts | 188° |
| 2026-05-08 17:31 | 59.20638 | 64.80904 | 35903 ft | 424 kts | 188° |
| 2026-05-08 17:31 | 59.14763 | 64.80764 | 35899 ft | 424 kts | 188° |
| 2026-05-08 17:32 | 59.08880 | 64.80626 | 35893 ft | 424 kts | 188° |
| 2026-05-08 17:32 | 59.03014 | 64.80489 | 35896 ft | 424 kts | 187° |
| 2026-05-08 17:33 | 58.97131 | 64.80351 | 35899 ft | 424 kts | 187° |
| 2026-05-08 17:33 | 58.91245 | 64.80213 | 35891 ft | 423 kts | 187° |
| 2026-05-08 17:34 | 58.85356 | 64.80077 | 35891 ft | 424 kts | 187° |
| 2026-05-08 17:34 | 58.79520 | 64.79953 | 35685 ft | 409 kts | 187° |
| 2026-05-08 17:35 | 58.76729 | 64.79896 | 35537 ft | 398 kts | 187° |
| 2026-05-08 17:35 | 58.74014 | 64.79839 | 35385 ft | 388 kts | 187° |
| 2026-05-08 17:35 | 58.71365 | 64.79781 | 35224 ft | 378 kts | 188° |
| 2026-05-08 17:35 | 58.68746 | 64.79720 | 34963 ft | 372 kts | 188° |
| 2026-05-08 17:36 | 58.66202 | 64.79657 | 34566 ft | 368 kts | 188° |
| 2026-05-08 17:36 | 58.64788 | 64.79622 | 34308 ft | 367 kts | 188° |
| 2026-05-08 17:36 | 58.59488 | 64.79500 | 33357 ft | 360 kts | 188° |
| 2026-05-08 17:37 | 58.57001 | 64.79443 | 32900 ft | 357 kts | 188° |
| 2026-05-08 17:37 | 58.54525 | 64.79384 | 32446 ft | 354 kts | 187° |
| 2026-05-08 17:37 | 58.52077 | 64.79327 | 32005 ft | 350 kts | 187° |
| 2026-05-08 17:37 | 58.49684 | 64.79272 | 31569 ft | 347 kts | 187° |
| 2026-05-08 17:38 | 58.47267 | 64.79217 | 31112 ft | 345 kts | 187° |
| 2026-05-08 17:38 | 58.44899 | 64.79162 | 30654 ft | 342 kts | 187° |
| 2026-05-08 17:38 | 58.42522 | 64.79108 | 30206 ft | 339 kts | 187° |
| 2026-05-08 17:38 | 58.40179 | 64.79055 | 29765 ft | 337 kts | 187° |
| 2026-05-08 17:39 | 58.37848 | 64.79003 | 29328 ft | 334 kts | 187° |
| 2026-05-08 17:39 | 58.35524 | 64.78951 | 28890 ft | 332 kts | 187° |
| 2026-05-08 17:39 | 58.33232 | 64.78897 | 28461 ft | 329 kts | 187° |
| 2026-05-08 17:39 | 58.30951 | 64.78844 | 28033 ft | 327 kts | 187° |
| 2026-05-08 17:40 | 58.28700 | 64.78793 | 27619 ft | 324 kts | 187° |
| 2026-05-08 17:40 | 58.26461 | 64.78741 | 27191 ft | 322 kts | 187° |
| 2026-05-08 17:40 | 58.24268 | 64.78690 | 26793 ft | 319 kts | 187° |
| 2026-05-08 17:40 | 58.22040 | 64.78641 | 26378 ft | 317 kts | 187° |
| 2026-05-08 17:41 | 58.19859 | 64.78593 | 25961 ft | 315 kts | 187° |
| 2026-05-08 17:41 | 58.17698 | 64.78543 | 25551 ft | 313 kts | 187° |
| 2026-05-08 17:41 | 58.15518 | 64.78494 | 25149 ft | 310 kts | 187° |
| 2026-05-08 17:41 | 58.13374 | 64.78445 | 24749 ft | 308 kts | 187° |
| 2026-05-08 17:42 | 58.11272 | 64.78398 | 24333 ft | 307 kts | 187° |
| 2026-05-08 17:42 | 58.09129 | 64.78348 | 23836 ft | 309 kts | 187° |
| 2026-05-08 17:42 | 58.06984 | 64.78297 | 23249 ft | 310 kts | 187° |
| 2026-05-08 17:42 | 58.04824 | 64.78340 | 22628 ft | 318 kts | 181° |
| 2026-05-08 17:43 | 58.02629 | 64.78889 | 21916 ft | 323 kts | 174° |
| 2026-05-08 17:43 | 58.00428 | 64.80000 | 20997 ft | 332 kts | 167° |
| 2026-05-08 17:43 | 57.98263 | 64.81348 | 20079 ft | 336 kts | 166° |
| 2026-05-08 17:43 | 57.96043 | 64.82765 | 19146 ft | 338 kts | 165° |
| 2026-05-08 17:44 | 57.93842 | 64.84171 | 18228 ft | 339 kts | 165° |
| 2026-05-08 17:44 | 57.91619 | 64.85583 | 17316 ft | 339 kts | 165° |
| 2026-05-08 17:44 | 57.89389 | 64.86992 | 16401 ft | 338 kts | 165° |
| 2026-05-08 17:44 | 57.87203 | 64.88369 | 15500 ft | 337 kts | 165° |
| 2026-05-08 17:45 | 57.85003 | 64.89751 | 14589 ft | 336 kts | 165° |
| 2026-05-08 17:45 | 57.82789 | 64.91140 | 13666 ft | 334 kts | 165° |
| 2026-05-08 17:45 | 57.80646 | 64.92482 | 13054 ft | 322 kts | 165° |
| 2026-05-08 17:45 | 57.78569 | 64.93784 | 12578 ft | 308 kts | 165° |
| 2026-05-08 17:46 | 57.76585 | 64.95025 | 12106 ft | 297 kts | 165° |
| 2026-05-08 17:46 | 57.74652 | 64.96231 | 11627 ft | 287 kts | 165° |
| 2026-05-08 17:46 | 57.72789 | 64.97388 | 11154 ft | 279 kts | 165° |
| 2026-05-08 17:46 | 57.70995 | 64.98505 | 10684 ft | 271 kts | 165° |
| 2026-05-08 17:47 | 57.69216 | 64.99609 | 10172 ft | 267 kts | 165° |
| 2026-05-08 17:47 | 57.67475 | 65.00684 | 9603 ft | 265 kts | 165° |
| 2026-05-08 17:47 | 57.65741 | 65.01753 | 9032 ft | 263 kts | 165° |
| 2026-05-08 17:47 | 57.64586 | 65.02464 | 8650 ft | 261 kts | 164° |
| 2026-05-08 17:48 | 57.62312 | 65.03865 | 7889 ft | 259 kts | 163° |
| 2026-05-08 17:48 | 57.60622 | 65.04893 | 7320 ft | 256 kts | 165° |
| 2026-05-08 17:48 | 57.58910 | 65.05755 | 6745 ft | 254 kts | 168° |
| 2026-05-08 17:48 | 57.57209 | 65.06447 | 6174 ft | 252 kts | 168° |
| 2026-05-08 17:49 | 57.55501 | 65.07140 | 5593 ft | 250 kts | 168° |
| 2026-05-08 17:49 | 57.53829 | 65.07818 | 5020 ft | 248 kts | 168° |
| 2026-05-08 17:49 | 57.52163 | 65.08492 | 4443 ft | 246 kts | 167° |
| 2026-05-08 17:49 | 57.50522 | 65.09154 | 3978 ft | 238 kts | 167° |
| 2026-05-08 17:50 | 57.48954 | 65.09789 | 3833 ft | 228 kts | 166° |
| 2026-05-08 17:50 | 57.47397 | 65.10422 | 3831 ft | 227 kts | 166° |
| 2026-05-08 17:50 | 57.45854 | 65.11048 | 3832 ft | 227 kts | 166° |
| 2026-05-08 17:50 | 57.44324 | 65.11668 | 3836 ft | 227 kts | 166° |
| 2026-05-08 17:51 | 57.42783 | 65.12292 | 3832 ft | 227 kts | 166° |
| 2026-05-08 17:51 | 57.41243 | 65.12913 | 3831 ft | 228 kts | 166° |
| 2026-05-08 17:51 | 57.39697 | 65.13535 | 3830 ft | 228 kts | 166° |
| 2026-05-08 17:51 | 57.38151 | 65.14158 | 3830 ft | 227 kts | 166° |
| 2026-05-08 17:52 | 57.36600 | 65.14781 | 3832 ft | 227 kts | 167° |
| 2026-05-08 17:52 | 57.35064 | 65.15398 | 3833 ft | 227 kts | 167° |
| 2026-05-08 17:52 | 57.31988 | 65.16631 | 3840 ft | 220 kts | 167° |
| 2026-05-08 17:53 | 57.30531 | 65.17213 | 3833 ft | 211 kts | 166° |
| 2026-05-08 17:53 | 57.29097 | 65.17786 | 3843 ft | 211 kts | 167° |
| 2026-05-08 17:53 | 57.27684 | 65.18352 | 3844 ft | 206 kts | 166° |
| 2026-05-08 17:53 | 57.26324 | 65.18894 | 3837 ft | 194 kts | 166° |
| 2026-05-08 17:54 | 57.25010 | 65.19419 | 3847 ft | 192 kts | 166° |
| 2026-05-08 17:54 | 57.23720 | 65.19934 | 3856 ft | 192 kts | 166° |
| 2026-05-08 17:54 | 57.22411 | 65.20456 | 3845 ft | 191 kts | 166° |
| 2026-05-08 17:54 | 57.21126 | 65.20969 | 3850 ft | 191 kts | 166° |
| 2026-05-08 17:55 | 57.19819 | 65.21490 | 3852 ft | 192 kts | 166° |
| 2026-05-08 17:55 | 57.18520 | 65.22006 | 3853 ft | 192 kts | 166° |
| 2026-05-08 17:55 | 57.17226 | 65.22520 | 3851 ft | 191 kts | 166° |
| 2026-05-08 17:55 | 57.15905 | 65.23031 | 3851 ft | 192 kts | 169° |
| 2026-05-08 17:56 | 57.14587 | 65.23305 | 3851 ft | 192 kts | 176° |
| 2026-05-08 17:56 | 57.13242 | 65.23264 | 3851 ft | 193 kts | 182° |
| 2026-05-08 17:56 | 57.11905 | 65.23023 | 3851 ft | 193 kts | 184° |
| 2026-05-08 17:56 | 57.10563 | 65.22768 | 3849 ft | 193 kts | 184° |
| 2026-05-08 17:57 | 57.09230 | 65.22512 | 3809 ft | 194 kts | 184° |
| 2026-05-08 17:57 | 57.07875 | 65.22253 | 3463 ft | 198 kts | 183° |
| 2026-05-08 17:57 | 57.06494 | 65.21989 | 3103 ft | 203 kts | 183° |
| 2026-05-08 17:57 | 57.05073 | 65.21719 | 2804 ft | 205 kts | 182° |
| 2026-05-08 17:58 | 57.03698 | 65.21457 | 2760 ft | 195 kts | 182° |
| 2026-05-08 17:58 | 57.02418 | 65.20795 | 2720 ft | 196 kts | 212° |
| 2026-05-08 17:58 | 57.01669 | 65.18677 | 2505 ft | 208 kts | 256° |
| 2026-05-08 17:58 | 57.01947 | 65.16098 | 2233 ft | 216 kts | 301° |
| 2026-05-08 17:59 | 57.02980 | 65.14167 | 2003 ft | 210 kts | 323° |
| 2026-05-08 17:59 | 57.04117 | 65.12614 | 1952 ft | 197 kts | 326° |
| 2026-05-08 17:59 | 57.05177 | 65.11147 | 1957 ft | 187 kts | 324° |
| 2026-05-08 17:59 | 57.06184 | 65.09650 | 1953 ft | 185 kts | 323° |
| 2026-05-08 18:00 | 57.07305 | 65.08630 | 1932 ft | 177 kts | 2° |
| 2026-05-08 18:00 | 57.08949 | 65.11008 | 1972 ft | 151 kts | 65° |
| 2026-05-08 18:00 | 57.09513 | 65.12627 | 1961 ft | 148 kts | 63° |
| 2026-05-08 18:01 | 57.10120 | 65.14134 | 1962 ft | 149 kts | 59° |
| 2026-05-08 18:01 | 57.10789 | 65.15610 | 1958 ft | 150 kts | 57° |
| 2026-05-08 18:01 | 57.11480 | 65.17036 | 1809 ft | 144 kts | 56° |
| 2026-05-08 18:01 | 57.12116 | 65.18315 | 1621 ft | 133 kts | 56° |
| 2026-05-08 18:02 | 57.12738 | 65.19577 | 1470 ft | 131 kts | 55° |
| 2026-05-08 18:02 | 57.13143 | 65.20395 | 1384 ft | 131 kts | 55° |
| 2026-05-08 18:02 | 57.13948 | 65.22062 | 1171 ft | 130 kts | 54° |
| 2026-05-08 18:02 | 57.14558 | 65.23312 | 1019 ft | 131 kts | 53° |
| 2026-05-08 18:03 | 57.15172 | 65.24550 | 864 ft | 131 kts | 51° |
| 2026-05-08 18:03 | 57.15776 | 65.25779 | 705 ft | 130 kts | 51° |
| 2026-05-08 18:03 | 57.16388 | 65.27023 | 563 ft | 130 kts | 49° |
| 2026-05-08 18:03 | 57.16998 | 65.28261 | 402 ft | 130 kts | 49° |
| 2026-05-08 18:04 | 57.17543 | 65.29372 | 383 ft | 95 kts | 47° |
| 2026-05-08 18:04 | 57.17874 | 65.30038 | 383 ft | 53 kts | 47° |
| 2026-05-08 18:04 | 57.18107 | 65.30512 | 383 ft | 46 kts | 48° |
| 2026-05-08 18:04 | 57.18307 | 65.30913 | 383 ft | 38 kts | 46° |
| 2026-05-08 18:05 | 57.18468 | 65.31239 | 383 ft | 30 kts | 47° |
| 2026-05-08 18:05 | 57.18603 | 65.31512 | 383 ft | 27 kts | 47° |
| 2026-05-08 18:05 | 57.18693 | 65.31695 | 383 ft | 9 kts | 52° |
| 2026-05-08 18:05 | 57.18690 | 65.31809 | 383 ft | 10 kts | 132° |
| 2026-05-08 18:06 | 57.18636 | 65.31902 | 383 ft | 11 kts | 137° |
| 2026-05-08 18:06 | 57.18576 | 65.31999 | 383 ft | 11 kts | 138° |
| 2026-05-08 18:06 | 57.18513 | 65.32103 | 383 ft | 12 kts | 138° |
| 2026-05-08 18:06 | 57.18462 | 65.32230 | 383 ft | 12 kts | 90° |
| 2026-05-08 18:07 | 57.18465 | 65.32395 | 383 ft | 13 kts | 87° |
| 2026-05-08 18:07 | 57.18469 | 65.32564 | 383 ft | 13 kts | 88° |
| 2026-05-08 18:07 | 57.18472 | 65.32737 | 383 ft | 13 kts | 87° |
| 2026-05-08 18:07 | 57.18475 | 65.32918 | 383 ft | 14 kts | 88° |
| 2026-05-08 18:08 | 57.18485 | 65.33097 | 383 ft | 14 kts | 61° |
| 2026-05-08 18:08 | 57.18551 | 65.33233 | 383 ft | 14 kts | 46° |
| 2026-05-08 18:08 | 57.18616 | 65.33370 | 383 ft | 14 kts | 69° |
| 2026-05-08 18:08 | 57.18622 | 65.33549 | 383 ft | 13 kts | 89° |
| 2026-05-08 18:09 | 57.18573 | 65.33684 | 383 ft | 13 kts | 135° |
| 2026-05-08 18:09 | 57.18505 | 65.33807 | 383 ft | 13 kts | 135° |
| 2026-05-08 18:09 | 57.18436 | 65.33934 | 383 ft | 14 kts | 135° |
| 2026-05-08 18:09 | 57.18364 | 65.34062 | 383 ft | 14 kts | 136° |
| 2026-05-08 18:10 | 57.18295 | 65.34201 | 383 ft | 14 kts | 131° |
| 2026-05-08 18:10 | 57.18229 | 65.34322 | 383 ft | 13 kts | 136° |
| 2026-05-08 18:10 | 57.18163 | 65.34443 | 383 ft | 13 kts | 134° |
| 2026-05-08 18:10 | 57.18096 | 65.34569 | 383 ft | 14 kts | 135° |
| 2026-05-08 18:11 | 57.18026 | 65.34699 | 383 ft | 14 kts | 134° |
| 2026-05-08 18:11 | 57.17958 | 65.34826 | 383 ft | 10 kts | 134° |
| 2026-05-08 18:11 | 57.17959 | 65.34904 | 383 ft | 6 kts | 41° |
| 2026-05-08 18:11 | 57.17985 | 65.34950 | 383 ft | 0 kts | 44° |